sensor_id;sensor_type;location;lat;lon;timestamp;P1;durP1;ratioP1;P2;durP2;ratioP2
55776;SDS011;54079;44.540;18.784;2023-06-26T00:02:24;7.82;;;6.88;;
55776;SDS011;54079;44.540;18.784;2023-06-26T00:04:50;5.85;;;5.13;;
55776;SDS011;54079;44.540;18.784;2023-06-26T00:07:19;4.75;;;4.35;;
55776;SDS011;54079;44.540;18.784;2023-06-26T00:09:45;5.53;;;5.03;;
55776;SDS011;54079;44.540;18.784;2023-06-26T00:12:11;5.43;;;4.43;;
55776;SDS011;54079;44.540;18.784;2023-06-26T00:14:37;4.38;;;3.97;;
55776;SDS011;54079;44.540;18.784;2023-06-26T00:17:03;5.20;;;4.78;;
55776;SDS011;54079;44.540;18.784;2023-06-26T00:19:29;4.75;;;4.32;;
55776;SDS011;54079;44.540;18.784;2023-06-26T00:21:55;4.43;;;4.03;;
55776;SDS011;54079;44.540;18.784;2023-06-26T00:24:21;6.07;;;5.47;;
55776;SDS011;54079;44.540;18.784;2023-06-26T00:26:47;6.13;;;5.63;;
55776;SDS011;54079;44.540;18.784;2023-06-26T00:29:13;5.82;;;5.32;;
55776;SDS011;54079;44.540;18.784;2023-06-26T00:31:39;6.30;;;5.70;;
55776;SDS011;54079;44.540;18.784;2023-06-26T00:34:05;6.25;;;5.75;;
55776;SDS011;54079;44.540;18.784;2023-06-26T00:36:31;5.05;;;4.47;;
55776;SDS011;54079;44.540;18.784;2023-06-26T00:38:58;6.38;;;5.78;;
55776;SDS011;54079;44.540;18.784;2023-06-26T00:41:24;9.88;;;6.13;;
55776;SDS011;54079;44.540;18.784;2023-06-26T00:43:50;5.38;;;4.82;;
55776;SDS011;54079;44.540;18.784;2023-06-26T00:46:16;5.80;;;4.72;;
55776;SDS011;54079;44.540;18.784;2023-06-26T00:48:44;4.80;;;4.40;;
55776;SDS011;54079;44.540;18.784;2023-06-26T00:51:12;5.95;;;5.35;;
55776;SDS011;54079;44.540;18.784;2023-06-26T00:53:38;5.88;;;4.75;;
55776;SDS011;54079;44.540;18.784;2023-06-26T00:56:04;6.00;;;5.40;;
55776;SDS011;54079;44.540;18.784;2023-06-26T00:58:31;4.63;;;4.22;;
55776;SDS011;54079;44.540;18.784;2023-06-26T01:00:57;5.18;;;4.78;;
55776;SDS011;54079;44.540;18.784;2023-06-26T01:03:23;5.85;;;5.15;;
55776;SDS011;54079;44.540;18.784;2023-06-26T01:05:56;5.97;;;5.47;;
55776;SDS011;54079;44.540;18.784;2023-06-26T01:08:24;8.77;;;7.78;;
55776;SDS011;54079;44.540;18.784;2023-06-26T01:10:51;7.68;;;7.00;;
55776;SDS011;54079;44.540;18.784;2023-06-26T01:13:17;10.43;;;9.48;;
55776;SDS011;54079;44.540;18.784;2023-06-26T01:15:44;17.25;;;12.57;;
55776;SDS011;54079;44.540;18.784;2023-06-26T01:18:11;13.32;;;12.02;;
55776;SDS011;54079;44.540;18.784;2023-06-26T01:20:40;8.75;;;7.95;;
55776;SDS011;54079;44.540;18.784;2023-06-26T01:28:33;7.88;;;7.15;;
55776;SDS011;54079;44.540;18.784;2023-06-26T01:31:02;6.63;;;5.97;;
55776;SDS011;54079;44.540;18.784;2023-06-26T01:33:29;9.48;;;8.57;;
55776;SDS011;54079;44.540;18.784;2023-06-26T01:35:56;14.07;;;12.73;;
55776;SDS011;54079;44.540;18.784;2023-06-26T01:38:22;10.40;;;9.30;;
55776;SDS011;54079;44.540;18.784;2023-06-26T01:40:48;8.52;;;7.82;;
55776;SDS011;54079;44.540;18.784;2023-06-26T01:43:27;14.13;;;10.48;;
55776;SDS011;54079;44.540;18.784;2023-06-26T01:46:06;12.52;;;10.93;;
55776;SDS011;54079;44.540;18.784;2023-06-26T01:48:45;13.52;;;12.00;;
55776;SDS011;54079;44.540;18.784;2023-06-26T01:51:16;10.63;;;9.63;;
55776;SDS011;54079;44.540;18.784;2023-06-26T01:53:45;8.93;;;8.10;;
55776;SDS011;54079;44.540;18.784;2023-06-26T01:56:14;8.82;;;7.93;;
55776;SDS011;54079;44.540;18.784;2023-06-26T01:58:45;7.18;;;6.47;;
55776;SDS011;54079;44.540;18.784;2023-06-26T02:01:13;9.75;;;7.90;;
55776;SDS011;54079;44.540;18.784;2023-06-26T02:03:39;10.10;;;9.10;;
55776;SDS011;54079;44.540;18.784;2023-06-26T02:06:05;12.05;;;10.85;;
55776;SDS011;54079;44.540;18.784;2023-06-26T02:08:31;11.27;;;10.18;;
55776;SDS011;54079;44.540;18.784;2023-06-26T02:10:57;13.48;;;11.27;;
55776;SDS011;54079;44.540;18.784;2023-06-26T02:13:23;12.25;;;10.95;;
55776;SDS011;54079;44.540;18.784;2023-06-26T02:15:48;11.88;;;10.73;;
55776;SDS011;54079;44.540;18.784;2023-06-26T02:18:14;14.75;;;12.57;;
55776;SDS011;54079;44.540;18.784;2023-06-26T02:20:41;11.05;;;9.93;;
55776;SDS011;54079;44.540;18.784;2023-06-26T02:23:09;8.60;;;7.80;;
55776;SDS011;54079;44.540;18.784;2023-06-26T02:25:35;10.65;;;9.60;;
55776;SDS011;54079;44.540;18.784;2023-06-26T02:28:01;11.55;;;10.45;;
55776;SDS011;54079;44.540;18.784;2023-06-26T02:30:27;11.82;;;9.80;;
55776;SDS011;54079;44.540;18.784;2023-06-26T02:32:52;10.00;;;9.02;;
55776;SDS011;54079;44.540;18.784;2023-06-26T02:35:19;12.02;;;10.93;;
55776;SDS011;54079;44.540;18.784;2023-06-26T02:37:44;16.30;;;14.70;;
55776;SDS011;54079;44.540;18.784;2023-06-26T02:40:10;15.90;;;13.77;;
55776;SDS011;54079;44.540;18.784;2023-06-26T02:42:36;14.15;;;12.75;;
55776;SDS011;54079;44.540;18.784;2023-06-26T02:45:03;11.13;;;10.02;;
55776;SDS011;54079;44.540;18.784;2023-06-26T02:47:29;12.77;;;11.43;;
55776;SDS011;54079;44.540;18.784;2023-06-26T02:49:55;13.32;;;10.35;;
55776;SDS011;54079;44.540;18.784;2023-06-26T02:52:21;11.70;;;10.45;;
55776;SDS011;54079;44.540;18.784;2023-06-26T02:54:47;17.80;;;15.90;;
55776;SDS011;54079;44.540;18.784;2023-06-26T02:57:13;18.55;;;16.63;;
55776;SDS011;54079;44.540;18.784;2023-06-26T02:59:39;12.85;;;11.40;;
55776;SDS011;54079;44.540;18.784;2023-06-26T03:02:05;12.50;;;10.98;;
55776;SDS011;54079;44.540;18.784;2023-06-26T03:04:31;9.43;;;8.45;;
55776;SDS011;54079;44.540;18.784;2023-06-26T03:07:01;10.30;;;9.30;;
55776;SDS011;54079;44.540;18.784;2023-06-26T03:09:28;13.68;;;12.27;;
55776;SDS011;54079;44.540;18.784;2023-06-26T03:11:54;13.38;;;12.07;;
55776;SDS011;54079;44.540;18.784;2023-06-26T03:14:20;13.52;;;12.20;;
55776;SDS011;54079;44.540;18.784;2023-06-26T03:16:46;11.65;;;10.52;;
55776;SDS011;54079;44.540;18.784;2023-06-26T03:19:13;10.93;;;9.82;;
55776;SDS011;54079;44.540;18.784;2023-06-26T03:21:39;12.32;;;11.13;;
55776;SDS011;54079;44.540;18.784;2023-06-26T03:24:05;13.23;;;11.93;;
55776;SDS011;54079;44.540;18.784;2023-06-26T03:26:31;12.43;;;10.98;;
55776;SDS011;54079;44.540;18.784;2023-06-26T03:28:57;11.10;;;9.80;;
55776;SDS011;54079;44.540;18.784;2023-06-26T03:31:23;10.48;;;9.38;;
55776;SDS011;54079;44.540;18.784;2023-06-26T03:33:49;10.40;;;9.40;;
55776;SDS011;54079;44.540;18.784;2023-06-26T03:36:15;12.13;;;10.93;;
55776;SDS011;54079;44.540;18.784;2023-06-26T03:38:41;13.00;;;11.15;;
55776;SDS011;54079;44.540;18.784;2023-06-26T03:41:07;13.18;;;11.40;;
55776;SDS011;54079;44.540;18.784;2023-06-26T03:43:33;12.50;;;11.07;;
55776;SDS011;54079;44.540;18.784;2023-06-26T03:45:59;11.65;;;10.27;;
55776;SDS011;54079;44.540;18.784;2023-06-26T03:48:25;17.25;;;15.45;;
55776;SDS011;54079;44.540;18.784;2023-06-26T03:50:51;13.18;;;11.77;;
55776;SDS011;54079;44.540;18.784;2023-06-26T03:53:17;11.27;;;10.02;;
55776;SDS011;54079;44.540;18.784;2023-06-26T03:55:43;11.95;;;10.77;;
55776;SDS011;54079;44.540;18.784;2023-06-26T03:58:09;13.82;;;11.13;;
55776;SDS011;54079;44.540;18.784;2023-06-26T04:00:35;12.68;;;11.43;;
55776;SDS011;54079;44.540;18.784;2023-06-26T04:03:00;16.00;;;14.45;;
55776;SDS011;54079;44.540;18.784;2023-06-26T04:05:27;13.55;;;12.18;;
55776;SDS011;54079;44.540;18.784;2023-06-26T04:07:53;13.30;;;12.00;;
55776;SDS011;54079;44.540;18.784;2023-06-26T04:10:19;15.60;;;13.43;;
55776;SDS011;54079;44.540;18.784;2023-06-26T04:12:48;13.90;;;12.50;;
55776;SDS011;54079;44.540;18.784;2023-06-26T04:15:14;11.68;;;10.48;;
55776;SDS011;54079;44.540;18.784;2023-06-26T04:17:40;9.77;;;8.77;;
55776;SDS011;54079;44.540;18.784;2023-06-26T04:20:06;10.10;;;9.07;;
55776;SDS011;54079;44.540;18.784;2023-06-26T04:22:33;9.07;;;8.18;;
55776;SDS011;54079;44.540;18.784;2023-06-26T04:25:03;8.32;;;7.43;;
55776;SDS011;54079;44.540;18.784;2023-06-26T04:27:29;7.95;;;6.97;;
55776;SDS011;54079;44.540;18.784;2023-06-26T04:29:55;8.75;;;7.85;;
55776;SDS011;54079;44.540;18.784;2023-06-26T04:32:21;8.30;;;7.50;;
55776;SDS011;54079;44.540;18.784;2023-06-26T04:34:47;9.73;;;8.73;;
55776;SDS011;54079;44.540;18.784;2023-06-26T04:37:13;7.45;;;6.75;;
55776;SDS011;54079;44.540;18.784;2023-06-26T04:39:42;7.75;;;7.05;;
55776;SDS011;54079;44.540;18.784;2023-06-26T04:42:08;10.70;;;9.70;;
55776;SDS011;54079;44.540;18.784;2023-06-26T04:44:37;10.65;;;9.55;;
55776;SDS011;54079;44.540;18.784;2023-06-26T04:47:03;11.48;;;10.38;;
55776;SDS011;54079;44.540;18.784;2023-06-26T04:49:29;8.13;;;7.22;;
55776;SDS011;54079;44.540;18.784;2023-06-26T04:51:55;11.18;;;10.10;;
55776;SDS011;54079;44.540;18.784;2023-06-26T04:54:21;7.90;;;7.20;;
55776;SDS011;54079;44.540;18.784;2023-06-26T04:56:48;8.60;;;7.80;;
55776;SDS011;54079;44.540;18.784;2023-06-26T04:59:14;9.73;;;8.25;;
55776;SDS011;54079;44.540;18.784;2023-06-26T05:01:40;9.85;;;8.85;;
55776;SDS011;54079;44.540;18.784;2023-06-26T05:04:06;11.30;;;10.20;;
55776;SDS011;54079;44.540;18.784;2023-06-26T05:06:32;8.88;;;8.02;;
55776;SDS011;54079;44.540;18.784;2023-06-26T05:08:58;9.82;;;8.85;;
55776;SDS011;54079;44.540;18.784;2023-06-26T05:11:24;10.85;;;9.90;;
55776;SDS011;54079;44.540;18.784;2023-06-26T05:13:50;9.10;;;8.18;;
55776;SDS011;54079;44.540;18.784;2023-06-26T05:16:16;11.63;;;10.43;;
55776;SDS011;54079;44.540;18.784;2023-06-26T05:18:42;8.43;;;7.55;;
55776;SDS011;54079;44.540;18.784;2023-06-26T05:21:08;8.68;;;7.78;;
55776;SDS011;54079;44.540;18.784;2023-06-26T05:23:34;8.30;;;7.50;;
55776;SDS011;54079;44.540;18.784;2023-06-26T05:26:01;9.13;;;8.32;;
55776;SDS011;54079;44.540;18.784;2023-06-26T05:28:28;9.13;;;8.25;;
55776;SDS011;54079;44.540;18.784;2023-06-26T05:30:56;11.82;;;8.75;;
55776;SDS011;54079;44.540;18.784;2023-06-26T05:33:23;9.35;;;8.45;;
55776;SDS011;54079;44.540;18.784;2023-06-26T05:35:53;7.80;;;7.10;;
55776;SDS011;54079;44.540;18.784;2023-06-26T05:38:20;9.35;;;8.40;;
55776;SDS011;54079;44.540;18.784;2023-06-26T05:40:46;8.57;;;7.78;;
55776;SDS011;54079;44.540;18.784;2023-06-26T05:43:13;13.30;;;11.75;;
55776;SDS011;54079;44.540;18.784;2023-06-26T05:45:39;11.30;;;9.65;;
55776;SDS011;54079;44.540;18.784;2023-06-26T05:48:06;9.57;;;8.57;;
55776;SDS011;54079;44.540;18.784;2023-06-26T05:50:32;9.80;;;8.82;;
55776;SDS011;54079;44.540;18.784;2023-06-26T05:52:58;9.88;;;8.88;;
55776;SDS011;54079;44.540;18.784;2023-06-26T05:55:26;12.10;;;10.90;;
55776;SDS011;54079;44.540;18.784;2023-06-26T05:57:52;11.85;;;10.65;;
55776;SDS011;54079;44.540;18.784;2023-06-26T06:00:19;14.75;;;11.30;;
55776;SDS011;54079;44.540;18.784;2023-06-26T06:02:45;12.65;;;11.32;;
55776;SDS011;54079;44.540;18.784;2023-06-26T06:05:11;10.88;;;9.85;;
55776;SDS011;54079;44.540;18.784;2023-06-26T06:07:37;10.88;;;9.52;;
55776;SDS011;54079;44.540;18.784;2023-06-26T06:10:03;12.00;;;10.82;;
55776;SDS011;54079;44.540;18.784;2023-06-26T06:12:30;14.10;;;12.60;;
55776;SDS011;54079;44.540;18.784;2023-06-26T06:14:56;12.15;;;10.82;;
55776;SDS011;54079;44.540;18.784;2023-06-26T06:17:22;15.55;;;8.85;;
55776;SDS011;54079;44.540;18.784;2023-06-26T06:19:48;26.55;;;10.30;;
55776;SDS011;54079;44.540;18.784;2023-06-26T06:22:14;9.52;;;8.55;;
55776;SDS011;54079;44.540;18.784;2023-06-26T06:24:42;10.90;;;9.90;;
55776;SDS011;54079;44.540;18.784;2023-06-26T06:27:09;19.63;;;9.95;;
55776;SDS011;54079;44.540;18.784;2023-06-26T06:29:35;9.77;;;8.45;;
55776;SDS011;54079;44.540;18.784;2023-06-26T06:32:01;8.40;;;7.38;;
55776;SDS011;54079;44.540;18.784;2023-06-26T06:34:27;9.32;;;7.75;;
55776;SDS011;54079;44.540;18.784;2023-06-26T06:36:53;8.05;;;7.25;;
55776;SDS011;54079;44.540;18.784;2023-06-26T06:39:19;8.73;;;8.00;;
55776;SDS011;54079;44.540;18.784;2023-06-26T06:41:45;11.82;;;10.70;;
55776;SDS011;54079;44.540;18.784;2023-06-26T06:44:10;9.43;;;8.52;;
55776;SDS011;54079;44.540;18.784;2023-06-26T06:46:36;10.50;;;9.50;;
55776;SDS011;54079;44.540;18.784;2023-06-26T06:49:02;10.02;;;9.13;;
55776;SDS011;54079;44.540;18.784;2023-06-26T06:51:29;8.93;;;8.10;;
55776;SDS011;54079;44.540;18.784;2023-06-26T06:53:55;7.07;;;6.57;;
55776;SDS011;54079;44.540;18.784;2023-06-26T06:56:21;9.10;;;8.30;;
55776;SDS011;54079;44.540;18.784;2023-06-26T06:58:47;9.18;;;8.35;;
55776;SDS011;54079;44.540;18.784;2023-06-26T07:01:13;8.35;;;7.75;;
55776;SDS011;54079;44.540;18.784;2023-06-26T07:03:39;8.88;;;8.02;;
55776;SDS011;54079;44.540;18.784;2023-06-26T07:06:05;7.53;;;6.93;;
55776;SDS011;54079;44.540;18.784;2023-06-26T07:08:31;7.63;;;7.03;;
55776;SDS011;54079;44.540;18.784;2023-06-26T07:10:57;7.93;;;7.20;;
55776;SDS011;54079;44.540;18.784;2023-06-26T07:13:23;8.63;;;7.93;;
55776;SDS011;54079;44.540;18.784;2023-06-26T07:15:49;7.80;;;7.10;;
55776;SDS011;54079;44.540;18.784;2023-06-26T07:18:15;7.38;;;6.78;;
55776;SDS011;54079;44.540;18.784;2023-06-26T07:20:41;8.35;;;7.55;;
55776;SDS011;54079;44.540;18.784;2023-06-26T07:23:08;6.22;;;5.72;;
55776;SDS011;54079;44.540;18.784;2023-06-26T07:25:34;6.90;;;6.25;;
55776;SDS011;54079;44.540;18.784;2023-06-26T07:28:00;8.70;;;7.90;;
55776;SDS011;54079;44.540;18.784;2023-06-26T07:30:26;8.60;;;7.80;;
55776;SDS011;54079;44.540;18.784;2023-06-26T07:32:52;9.23;;;8.32;;
55776;SDS011;54079;44.540;18.784;2023-06-26T07:35:18;7.85;;;7.15;;
55776;SDS011;54079;44.540;18.784;2023-06-26T07:37:44;7.78;;;7.18;;
55776;SDS011;54079;44.540;18.784;2023-06-26T07:40:10;7.57;;;6.90;;
55776;SDS011;54079;44.540;18.784;2023-06-26T07:42:36;6.57;;;6.07;;
55776;SDS011;54079;44.540;18.784;2023-06-26T07:45:02;6.75;;;6.25;;
55776;SDS011;54079;44.540;18.784;2023-06-26T07:47:39;6.47;;;5.93;;
55776;SDS011;54079;44.540;18.784;2023-06-26T07:50:05;8.50;;;7.80;;
55776;SDS011;54079;44.540;18.784;2023-06-26T07:52:31;6.30;;;5.70;;
55776;SDS011;54079;44.540;18.784;2023-06-26T07:54:57;6.30;;;5.70;;
55776;SDS011;54079;44.540;18.784;2023-06-26T07:57:23;7.40;;;6.72;;
55776;SDS011;54079;44.540;18.784;2023-06-26T07:59:50;6.60;;;6.03;;
55776;SDS011;54079;44.540;18.784;2023-06-26T08:02:16;9.68;;;8.98;;
55776;SDS011;54079;44.540;18.784;2023-06-26T08:04:42;6.70;;;6.20;;
55776;SDS011;54079;44.540;18.784;2023-06-26T08:07:09;7.22;;;6.72;;
55776;SDS011;54079;44.540;18.784;2023-06-26T08:09:35;6.35;;;5.85;;
55776;SDS011;54079;44.540;18.784;2023-06-26T08:12:02;5.93;;;5.53;;
55776;SDS011;54079;44.540;18.784;2023-06-26T08:14:28;7.07;;;6.38;;
55776;SDS011;54079;44.540;18.784;2023-06-26T08:16:54;7.28;;;6.78;;
55776;SDS011;54079;44.540;18.784;2023-06-26T08:19:20;7.72;;;7.13;;
55776;SDS011;54079;44.540;18.784;2023-06-26T08:21:46;6.72;;;6.20;;
55776;SDS011;54079;44.540;18.784;2023-06-26T08:24:13;6.35;;;5.95;;
55776;SDS011;54079;44.540;18.784;2023-06-26T08:26:41;6.60;;;6.20;;
55776;SDS011;54079;44.540;18.784;2023-06-26T08:29:07;6.22;;;5.63;;
55776;SDS011;54079;44.540;18.784;2023-06-26T08:31:34;5.13;;;4.72;;
55776;SDS011;54079;44.540;18.784;2023-06-26T08:34:01;7.05;;;6.45;;
55776;SDS011;54079;44.540;18.784;2023-06-26T08:36:28;6.25;;;5.75;;
55776;SDS011;54079;44.540;18.784;2023-06-26T08:38:54;6.57;;;6.07;;
55776;SDS011;54079;44.540;18.784;2023-06-26T08:41:20;7.53;;;6.70;;
55776;SDS011;54079;44.540;18.784;2023-06-26T08:43:46;7.03;;;6.38;;
55776;SDS011;54079;44.540;18.784;2023-06-26T08:46:13;8.30;;;7.07;;
55776;SDS011;54079;44.540;18.784;2023-06-26T08:48:40;7.13;;;6.53;;
55776;SDS011;54079;44.540;18.784;2023-06-26T08:51:13;7.68;;;7.00;;
55776;SDS011;54079;44.540;18.784;2023-06-26T08:53:43;6.78;;;6.28;;
55776;SDS011;54079;44.540;18.784;2023-06-26T08:56:13;7.80;;;7.20;;
55776;SDS011;54079;44.540;18.784;2023-06-26T08:58:42;7.90;;;7.22;;
55776;SDS011;54079;44.540;18.784;2023-06-26T09:01:09;8.73;;;7.82;;
55776;SDS011;54079;44.540;18.784;2023-06-26T09:03:35;7.68;;;6.97;;
55776;SDS011;54079;44.540;18.784;2023-06-26T09:06:02;6.70;;;6.05;;
55776;SDS011;54079;44.540;18.784;2023-06-26T09:08:28;10.88;;;9.95;;
55776;SDS011;54079;44.540;18.784;2023-06-26T09:10:54;7.93;;;6.65;;
55776;SDS011;54079;44.540;18.784;2023-06-26T09:13:20;7.63;;;7.03;;
55776;SDS011;54079;44.540;18.784;2023-06-26T09:15:46;6.35;;;5.85;;
55776;SDS011;54079;44.540;18.784;2023-06-26T09:18:12;6.18;;;5.68;;
55776;SDS011;54079;44.540;18.784;2023-06-26T09:20:38;6.00;;;5.40;;
55776;SDS011;54079;44.540;18.784;2023-06-26T09:23:04;6.68;;;6.05;;
55776;SDS011;54079;44.540;18.784;2023-06-26T09:25:30;7.32;;;6.70;;
55776;SDS011;54079;44.540;18.784;2023-06-26T09:27:57;8.55;;;7.60;;
55776;SDS011;54079;44.540;18.784;2023-06-26T09:30:23;6.10;;;5.63;;
55776;SDS011;54079;44.540;18.784;2023-06-26T09:32:49;6.63;;;6.13;;
55776;SDS011;54079;44.540;18.784;2023-06-26T09:35:15;5.95;;;5.45;;
55776;SDS011;54079;44.540;18.784;2023-06-26T09:37:42;4.93;;;4.55;;
55776;SDS011;54079;44.540;18.784;2023-06-26T09:40:08;3.90;;;3.60;;
55776;SDS011;54079;44.540;18.784;2023-06-26T09:42:35;4.93;;;4.55;;
55776;SDS011;54079;44.540;18.784;2023-06-26T09:45:01;4.68;;;4.28;;
55776;SDS011;54079;44.540;18.784;2023-06-26T09:47:29;5.38;;;4.95;;
55776;SDS011;54079;44.540;18.784;2023-06-26T09:49:56;5.68;;;5.18;;
55776;SDS011;54079;44.540;18.784;2023-06-26T09:52:25;4.22;;;3.92;;
55776;SDS011;54079;44.540;18.784;2023-06-26T09:54:52;4.43;;;4.05;;
55776;SDS011;54079;44.540;18.784;2023-06-26T09:57:35;4.03;;;3.72;;
55776;SDS011;54079;44.540;18.784;2023-06-26T10:00:02;4.57;;;4.18;;
55776;SDS011;54079;44.540;18.784;2023-06-26T10:02:29;5.45;;;4.75;;
55776;SDS011;54079;44.540;18.784;2023-06-26T10:04:55;5.10;;;4.70;;
55776;SDS011;54079;44.540;18.784;2023-06-26T10:07:21;5.05;;;4.70;;
55776;SDS011;54079;44.540;18.784;2023-06-26T10:09:48;4.35;;;4.05;;
55776;SDS011;54079;44.540;18.784;2023-06-26T10:12:28;4.97;;;4.47;;
55776;SDS011;54079;44.540;18.784;2023-06-26T10:14:56;4.80;;;4.38;;
55776;SDS011;54079;44.540;18.784;2023-06-26T10:17:24;3.90;;;3.60;;
55776;SDS011;54079;44.540;18.784;2023-06-26T10:19:54;4.68;;;4.28;;
55776;SDS011;54079;44.540;18.784;2023-06-26T10:22:24;4.75;;;4.43;;
55776;SDS011;54079;44.540;18.784;2023-06-26T10:24:53;5.27;;;4.87;;
55776;SDS011;54079;44.540;18.784;2023-06-26T10:27:24;5.90;;;5.50;;
55776;SDS011;54079;44.540;18.784;2023-06-26T10:29:56;8.98;;;7.13;;
55776;SDS011;54079;44.540;18.784;2023-06-26T10:32:26;7.30;;;6.68;;
55776;SDS011;54079;44.540;18.784;2023-06-26T10:34:53;7.05;;;6.45;;
55776;SDS011;54079;44.540;18.784;2023-06-26T10:37:21;8.18;;;7.35;;
55776;SDS011;54079;44.540;18.784;2023-06-26T10:40:10;5.53;;;5.03;;
55776;SDS011;54079;44.540;18.784;2023-06-26T10:42:39;5.57;;;4.93;;
55776;SDS011;54079;44.540;18.784;2023-06-26T10:47:47;6.53;;;5.95;;
55776;SDS011;54079;44.540;18.784;2023-06-26T10:50:23;6.80;;;6.30;;
55776;SDS011;54079;44.540;18.784;2023-06-26T10:53:15;6.13;;;5.72;;
55776;SDS011;54079;44.540;18.784;2023-06-26T10:56:03;5.35;;;4.95;;
55776;SDS011;54079;44.540;18.784;2023-06-26T10:58:34;6.27;;;5.77;;
55776;SDS011;54079;44.540;18.784;2023-06-26T11:04:02;5.40;;;4.90;;
55776;SDS011;54079;44.540;18.784;2023-06-26T11:06:30;5.90;;;5.38;;
55776;SDS011;54079;44.540;18.784;2023-06-26T11:12:14;5.25;;;4.75;;
55776;SDS011;54079;44.540;18.784;2023-06-26T11:14:24;5.85;;;5.35;;
55776;SDS011;54079;44.540;18.784;2023-06-26T11:16:52;5.22;;;4.82;;
55776;SDS011;54079;44.540;18.784;2023-06-26T11:19:20;4.38;;;4.07;;
55776;SDS011;54079;44.540;18.784;2023-06-26T11:21:46;5.20;;;4.80;;
55776;SDS011;54079;44.540;18.784;2023-06-26T11:24:13;6.13;;;5.63;;
55776;SDS011;54079;44.540;18.784;2023-06-26T11:26:39;4.57;;;4.28;;
55776;SDS011;54079;44.540;18.784;2023-06-26T11:29:06;3.90;;;3.60;;
55776;SDS011;54079;44.540;18.784;2023-06-26T11:31:33;4.75;;;4.35;;
55776;SDS011;54079;44.540;18.784;2023-06-26T11:34:04;5.30;;;4.90;;
55776;SDS011;54079;44.540;18.784;2023-06-26T11:36:38;5.28;;;4.72;;
55776;SDS011;54079;44.540;18.784;2023-06-26T11:39:07;4.50;;;4.20;;
55776;SDS011;54079;44.540;18.784;2023-06-26T11:41:34;5.00;;;4.60;;
55776;SDS011;54079;44.540;18.784;2023-06-26T11:44:02;4.68;;;4.28;;
55776;SDS011;54079;44.540;18.784;2023-06-26T11:46:32;4.70;;;4.30;;
55776;SDS011;54079;44.540;18.784;2023-06-26T11:49:02;5.57;;;5.07;;
55776;SDS011;54079;44.540;18.784;2023-06-26T11:51:32;4.50;;;4.18;;
55776;SDS011;54079;44.540;18.784;2023-06-26T11:54:00;4.32;;;4.03;;
55776;SDS011;54079;44.540;18.784;2023-06-26T11:56:28;3.88;;;3.58;;
55776;SDS011;54079;44.540;18.784;2023-06-26T11:58:58;4.35;;;3.97;;
55776;SDS011;54079;44.540;18.784;2023-06-26T12:01:34;3.92;;;3.63;;
55776;SDS011;54079;44.540;18.784;2023-06-26T12:04:02;4.00;;;3.70;;
55776;SDS011;54079;44.540;18.784;2023-06-26T12:06:36;4.88;;;4.43;;
55776;SDS011;54079;44.540;18.784;2023-06-26T12:09:05;4.75;;;3.45;;
55776;SDS011;54079;44.540;18.784;2023-06-26T12:11:35;4.57;;;4.28;;
55776;SDS011;54079;44.540;18.784;2023-06-26T12:14:04;4.25;;;3.95;;
55776;SDS011;54079;44.540;18.784;2023-06-26T12:16:31;3.67;;;3.38;;
55776;SDS011;54079;44.540;18.784;2023-06-26T12:19:03;3.40;;;3.20;;
55776;SDS011;54079;44.540;18.784;2023-06-26T12:21:51;3.20;;;3.00;;
55776;SDS011;54079;44.540;18.784;2023-06-26T12:24:18;3.33;;;3.13;;
55776;SDS011;54079;44.540;18.784;2023-06-26T12:26:46;4.32;;;4.00;;
55776;SDS011;54079;44.540;18.784;2023-06-26T12:29:15;3.10;;;2.90;;
55776;SDS011;54079;44.540;18.784;2023-06-26T12:31:44;4.28;;;3.97;;
55776;SDS011;54079;44.540;18.784;2023-06-26T12:34:18;3.42;;;3.17;;
55776;SDS011;54079;44.540;18.784;2023-06-26T12:36:46;3.03;;;2.83;;
55776;SDS011;54079;44.540;18.784;2023-06-26T12:39:18;3.58;;;3.28;;
55776;SDS011;54079;44.540;18.784;2023-06-26T12:41:49;3.83;;;3.58;;
55776;SDS011;54079;44.540;18.784;2023-06-26T12:44:29;4.90;;;4.28;;
55776;SDS011;54079;44.540;18.784;2023-06-26T12:46:59;3.53;;;3.33;;
55776;SDS011;54079;44.540;18.784;2023-06-26T12:49:30;6.07;;;4.63;;
55776;SDS011;54079;44.540;18.784;2023-06-26T12:51:58;3.47;;;3.25;;
55776;SDS011;54079;44.540;18.784;2023-06-26T12:54:24;4.30;;;4.00;;
55776;SDS011;54079;44.540;18.784;2023-06-26T12:56:51;3.47;;;3.20;;
55776;SDS011;54079;44.540;18.784;2023-06-26T12:59:17;4.45;;;4.05;;
55776;SDS011;54079;44.540;18.784;2023-06-26T13:01:43;3.80;;;3.50;;
55776;SDS011;54079;44.540;18.784;2023-06-26T13:04:09;3.33;;;3.03;;
55776;SDS011;54079;44.540;18.784;2023-06-26T13:06:35;2.85;;;2.65;;
55776;SDS011;54079;44.540;18.784;2023-06-26T13:09:01;3.60;;;3.30;;
55776;SDS011;54079;44.540;18.784;2023-06-26T13:11:31;3.55;;;3.25;;
55776;SDS011;54079;44.540;18.784;2023-06-26T13:13:58;4.22;;;3.88;;
55776;SDS011;54079;44.540;18.784;2023-06-26T13:16:24;6.43;;;5.93;;
55776;SDS011;54079;44.540;18.784;2023-06-26T13:18:50;6.22;;;4.85;;
55776;SDS011;54079;44.540;18.784;2023-06-26T13:21:16;3.65;;;3.15;;
55776;SDS011;54079;44.540;18.784;2023-06-26T13:23:45;4.95;;;4.53;;
55776;SDS011;54079;44.540;18.784;2023-06-26T13:26:11;6.00;;;5.28;;
55776;SDS011;54079;44.540;18.784;2023-06-26T13:28:37;3.80;;;3.50;;
55776;SDS011;54079;44.540;18.784;2023-06-26T13:31:03;3.47;;;3.22;;
55776;SDS011;54079;44.540;18.784;2023-06-26T13:33:30;4.43;;;3.42;;
55776;SDS011;54079;44.540;18.784;2023-06-26T13:35:56;2.63;;;2.42;;
55776;SDS011;54079;44.540;18.784;2023-06-26T13:38:23;2.40;;;2.20;;
55776;SDS011;54079;44.540;18.784;2023-06-26T13:40:55;2.50;;;2.30;;
55776;SDS011;54079;44.540;18.784;2023-06-26T13:43:28;2.53;;;2.35;;
55776;SDS011;54079;44.540;18.784;2023-06-26T13:45:54;2.33;;;2.13;;
55776;SDS011;54079;44.540;18.784;2023-06-26T13:48:21;2.50;;;2.30;;
55776;SDS011;54079;44.540;18.784;2023-06-26T13:50:49;3.20;;;2.90;;
55776;SDS011;54079;44.540;18.784;2023-06-26T13:53:15;2.90;;;2.65;;
55776;SDS011;54079;44.540;18.784;2023-06-26T13:55:42;3.72;;;3.33;;
55776;SDS011;54079;44.540;18.784;2023-06-26T13:58:09;4.72;;;3.85;;
55776;SDS011;54079;44.540;18.784;2023-06-26T14:00:36;2.30;;;2.20;;
55776;SDS011;54079;44.540;18.784;2023-06-26T14:03:03;2.58;;;2.38;;
55776;SDS011;54079;44.540;18.784;2023-06-26T14:05:31;2.15;;;2.05;;
55776;SDS011;54079;44.540;18.784;2023-06-26T14:07:58;2.42;;;2.22;;
55776;SDS011;54079;44.540;18.784;2023-06-26T14:10:24;6.20;;;2.97;;
55776;SDS011;54079;44.540;18.784;2023-06-26T14:12:50;8.10;;;7.28;;
55776;SDS011;54079;44.540;18.784;2023-06-26T14:15:16;7.30;;;6.53;;
55776;SDS011;54079;44.540;18.784;2023-06-26T14:17:42;7.00;;;6.00;;
55776;SDS011;54079;44.540;18.784;2023-06-26T14:20:09;5.28;;;4.78;;
55776;SDS011;54079;44.540;18.784;2023-06-26T14:22:38;4.18;;;3.78;;
55776;SDS011;54079;44.540;18.784;2023-06-26T14:25:05;3.35;;;3.05;;
55776;SDS011;54079;44.540;18.784;2023-06-26T14:27:35;2.72;;;2.53;;
55776;SDS011;54079;44.540;18.784;2023-06-26T14:30:02;2.38;;;2.17;;
55776;SDS011;54079;44.540;18.784;2023-06-26T14:32:28;3.47;;;3.17;;
55776;SDS011;54079;44.540;18.784;2023-06-26T14:34:55;3.67;;;3.38;;
55776;SDS011;54079;44.540;18.784;2023-06-26T14:37:21;3.97;;;3.53;;
55776;SDS011;54079;44.540;18.784;2023-06-26T14:39:47;4.38;;;3.97;;
55776;SDS011;54079;44.540;18.784;2023-06-26T14:42:13;4.70;;;3.70;;
55776;SDS011;54079;44.540;18.784;2023-06-26T14:44:39;5.10;;;4.47;;